Map

Track Data

SID SEASON NUMBER BASIN SUBBASIN NAME ISO_TIME NATURE LAT LON WMO_WIND WMO_PRES WMO_AGENCY TRACK_TYPE DIST2LAND LANDFALL IFLAG USA_AGENCY USA_ATCF_ID USA_LAT USA_LON USA_RECORD USA_STATUS USA_WIND USA_PRES USA_SSHS USA_R34_NE USA_R34_SE USA_R34_SW USA_R34_NW USA_R50_NE USA_R50_SE USA_R50_SW USA_R50_NW USA_R64_NE USA_R64_SE USA_R64_SW USA_R64_NW USA_POCI USA_ROCI USA_RMW USA_EYE TOKYO_LAT TOKYO_LON TOKYO_GRADE TOKYO_WIND TOKYO_PRES TOKYO_R50_DIR TOKYO_R50_LONG TOKYO_R50_SHORT TOKYO_R30_DIR TOKYO_R30_LONG TOKYO_R30_SHORT TOKYO_LAND CMA_LAT CMA_LON CMA_CAT CMA_WIND CMA_PRES HKO_LAT HKO_LON HKO_CAT HKO_WIND HKO_PRES NEWDELHI_LAT NEWDELHI_LON NEWDELHI_GRADE NEWDELHI_WIND NEWDELHI_PRES NEWDELHI_CI NEWDELHI_DP NEWDELHI_POCI REUNION_LAT REUNION_LON REUNION_TYPE REUNION_WIND REUNION_PRES REUNION_TNUM REUNION_CI REUNION_RMW REUNION_R34_NE REUNION_R34_SE REUNION_R34_SW REUNION_R34_NW REUNION_R50_NE REUNION_R50_SE REUNION_R50_SW REUNION_R50_NW REUNION_R64_NE REUNION_R64_SE REUNION_R64_SW REUNION_R64_NW BOM_LAT BOM_LON BOM_TYPE BOM_WIND BOM_PRES BOM_TNUM BOM_CI BOM_RMW BOM_R34_NE BOM_R34_SE BOM_R34_SW BOM_R34_NW BOM_R50_NE BOM_R50_SE BOM_R50_SW BOM_R50_NW BOM_R64_NE BOM_R64_SE BOM_R64_SW BOM_R64_NW BOM_ROCI BOM_POCI BOM_EYE BOM_POS_METHOD BOM_PRES_METHOD NADI_LAT NADI_LON NADI_CAT NADI_WIND NADI_PRES WELLINGTON_LAT WELLINGTON_LON WELLINGTON_WIND WELLINGTON_PRES DS824_LAT DS824_LON DS824_STAGE DS824_WIND DS824_PRES TD9636_LAT TD9636_LON TD9636_STAGE TD9636_WIND TD9636_PRES TD9635_LAT TD9635_LON TD9635_WIND TD9635_PRES TD9635_ROCI NEUMANN_LAT NEUMANN_LON NEUMANN_CLASS NEUMANN_WIND NEUMANN_PRES MLC_LAT MLC_LON MLC_CLASS MLC_WIND MLC_PRES USA_GUST BOM_GUST BOM_GUST_PER REUNION_GUST REUNION_GUST_PER USA_SEAHGT USA_SEARAD_NE USA_SEARAD_SE USA_SEARAD_SW USA_SEARAD_NW STORM_SPEED STORM_DIR
1969047S15175 1969 13 SP MM IRENE 1969-02-16 00:00:00 TS -14.8000 174.600 main 432 417 O________OO_O_ jtwc_sh SH241969 -14.8000 174.600 -1 -14.8000 174.600 TC -14.8000 174.600 2 -14.8000 174.600 TC 25 7 202
1969047S15175 1969 13 SP MM IRENE 1969-02-16 03:00:00 TS -15.1060 174.469 main 417 403 P________PP_P_ SH241969 -15.1075 174.448 -1 -15.1075 174.448 TC -15.1016 174.460 2 -15.1075 174.520 TC 25 7 204
1969047S15175 1969 13 SP MM IRENE 1969-02-16 06:00:00 TS -15.3981 174.329 main 412 401 O________OP_O_ jtwc_sh SH241969 -15.4000 174.300 -1 -15.4000 174.300 TC -15.3926 174.315 2 -15.4000 174.400 TC 25 6 207
1969047S15175 1969 13 SP MM IRENE 1969-02-16 09:00:00 TS -15.6643 174.173 main 401 401 P________PP_P_ SH241969 -15.6650 174.157 -1 -15.6650 174.157 TC -15.6622 174.163 2 -15.6650 174.215 TC 27 6 212
1969047S15175 1969 13 SP MM IRENE 1969-02-16 12:00:00 TS -15.9000 174.000 main 409 408 O________OO_O_ jtwc_sh SH241969 -15.9000 174.000 -1 -15.9000 174.000 TC -15.9000 174.000 2 -15.9000 174.000 TC 30 6 218
1969047S15175 1969 13 SP MM IRENE 1969-02-16 15:00:00 TS -16.1111 173.809 main 418 413 P________PP_P_ SH241969 -16.1150 173.807 -1 -16.1150 173.807 TC -16.0996 173.822 2 -16.1150 173.800 TC 32 5 224
1969047S15175 1969 13 SP MM IRENE 1969-02-16 18:00:00 TS -16.2931 173.607 main 427 427 O________OP_O_ jtwc_sh SH241969 -16.3000 173.600 -1 -16.3000 173.600 TC -16.2724 173.630 2 -16.3000 173.600 TC 35 5 229
1969047S15175 1969 13 SP MM IRENE 1969-02-16 21:00:00 TS -16.4460 173.411 main 441 437 P________PP_P_ SH241969 -16.4500 173.407 -1 -16.4500 173.407 TC -16.4340 173.422 2 -16.4500 173.407 TC 35 5 232
1969047S15175 1969 13 SP MM IRENE 1969-02-17 00:00:00 TS -16.6000 173.200 main 452 452 O________OO_O_ jtwc_sh SH241969 -16.6000 173.200 -1 -16.6000 173.200 TC -16.6000 173.200 2 -16.6000 173.200 TC 35 6 231
1969047S15175 1969 13 SP MM IRENE 1969-02-17 03:00:00 TS -16.8007 172.961 main 465 465 P________PP_P_ SH241969 -16.7925 172.957 -1 -16.7925 172.957 TC -16.8252 172.973 2 -16.7925 172.957 TC 35 6 229
1969047S15175 1969 13 SP MM IRENE 1969-02-17 06:00:00 TS -17.0131 172.708 main 490 487 O________OP_O_ jtwc_sh SH241969 -17.0000 172.700 -1 -17.0000 172.700 TC -17.0524 172.730 2 -17.0000 172.700 TC 35 6 228
1969047S15175 1969 13 SP MM IRENE 1969-02-17 09:00:00 TS -17.2302 172.458 main 504 476 P________PP_P_ SH241969 -17.2225 172.450 -1 -17.2225 172.450 TC -17.2533 172.473 2 -17.2224 172.458 TC 35 6 231
1969047S15175 1969 13 SP MM IRENE 1969-02-17 12:00:00 TS -17.4000 172.200 main 476 457 O________OO_O_ jtwc_sh SH241969 -17.4000 172.200 -1 -17.4000 172.200 TC -17.4000 172.200 2 -17.4000 172.200 TC 35 5 243
1969047S15175 1969 13 SP MM IRENE 1969-02-17 15:00:00 TS -17.4777 171.954 main 457 426 P________PP_P_ SH241969 -17.4874 171.965 -1 -17.4874 171.965 TC -17.4484 171.979 2 -17.4875 171.907 TC 35 5 260
1969047S15175 1969 13 SP MM IRENE 1969-02-17 18:00:00 TS -17.4858 171.684 main 426 393 O________OP_O_ jtwc_sh SH241969 -17.5000 171.700 -1 -17.5000 171.700 TC -17.4433 171.734 2 -17.5000 171.600 TC 35 5 273
1969047S15175 1969 13 SP MM IRENE 1969-02-17 21:00:00 TS -17.4470 171.401 main 393 351 P________PP_P_ SH241969 -17.4572 171.410 -1 -17.4572 171.410 TC -17.4167 171.422 2 -17.4571 171.360 TC 35 7 277
1969047S15175 1969 13 SP MM IRENE 1969-02-18 00:00:00 TS -17.4000 171.000 main 351 290 O________OO_O_ jtwc_sh SH241969 -17.4000 171.000 -1 -17.4000 171.000 TC -17.4000 171.000 2 -17.4000 171.000 TC 35 10 274
1969047S15175 1969 13 SP MM IRENE 1969-02-18 03:00:00 TS -17.3813 170.390 main 290 221 P________PP_P_ SH241969 -17.3775 170.410 -1 -17.3775 170.410 TC -17.3925 170.382 2 -17.3778 170.360 TC 35 13 270
1969047S15175 1969 13 SP MM IRENE 1969-02-18 06:00:00 TS -17.4012 169.665 main 221 155 O________OP_O_ jtwc_sh SH241969 -17.4000 169.700 -1 -17.4000 169.700 TC -17.4047 169.659 2 -17.4000 169.600 TC 35 14 267
1969047S15175 1969 13 SP MM IRENE 1969-02-18 09:00:00 TS -17.4593 168.913 main 154 119 P________PP_P_ SH241969 -17.4552 168.935 -1 -17.4552 168.935 TC -17.4643 168.906 2 -17.4625 168.877 TC 35 14 262
1969047S15175 1969 13 SP MM IRENE 1969-02-18 12:00:00 TS -17.6000 168.200 main 119 116 O________OO_O_ jtwc_sh SH241969 -17.6000 168.200 -1 -17.6000 168.200 TC -17.6000 168.200 2 -17.6000 168.200 TC 35 13 253
1969047S15175 1969 13 SP MM IRENE 1969-02-18 15:00:00 TS -17.8325 167.603 main 134 134 P________PP_P_ SH241969 -17.8622 167.605 -1 -17.8622 167.605 TC -17.8533 167.611 2 -17.7524 167.590 TC 37 12 242
1969047S15175 1969 13 SP MM IRENE 1969-02-18 18:00:00 TS -18.1704 167.095 main 184 184 O________OP_O_ jtwc_sh SH241969 -18.2000 167.100 -1 -18.2000 167.100 TC -18.1817 167.081 2 -18.1000 167.100 TC 40 12 229
1969047S15175 1969 13 SP MM IRENE 1969-02-18 21:00:00 TS -18.6291 166.652 main 239 237 P________PP_P_ SH241969 -18.5499 166.613 -1 -18.5499 166.613 TC -18.5443 166.611 2 -18.8722 166.770 TC 37 13 220
1969047S15175 1969 13 SP MM IRENE 1969-02-18 23:00:00 TS -18.9777 166.389 996 bom main 237 222 P_____O__PP_P_ SH241969 -18.7864 166.328 -1 -19.6000 166.300 996 -18.7864 166.328 TC -18.7847 166.330 2 -19.3979 166.593 TC 35 13 215
1969047S15175 1969 13 SP MM IRENE 1969-02-19 00:00:00 TS -19.1613 166.260 main 212 172 O_____P__OO_O_ jtwc_sh SH241969 -18.9000 166.200 -1 -19.6323 166.166 995 -18.9000 166.200 TC -18.9000 166.200 2 -19.6000 166.500 TC 35 996 10 224
1969047S15175 1969 13 SP MM IRENE 1969-02-19 03:00:00 TS -19.4433 165.904 main 172 137 P_____P__PP_P_ SH241969 -19.2148 165.877 -1 -19.7292 165.774 994 -19.2148 165.877 TC -19.2046 165.862 2 -19.7975 166.149 TC 37 994 8 233
1969047S15175 1969 13 SP MM IRENE 1969-02-19 06:00:00 TS -19.6464 165.578 main 137 99 O_____P__OP_O_ jtwc_sh SH241969 -19.5000 165.600 -1 -19.8276 165.422 992 -19.5000 165.600 TC -19.4936 165.576 2 -19.8000 165.800 TC 40 993 7 236
1969047S15175 1969 13 SP MM IRENE 1969-02-19 09:00:00 TS -19.8333 165.279 main 99 76 P_____P__PP_P_ SH241969 -19.7573 165.322 -1 -19.9293 165.137 991 -19.7573 165.322 TC -19.7609 165.303 2 -19.9000 165.470 TC 42 991 7 236
1969047S15175 1969 13 SP MM IRENE 1969-02-19 11:00:00 TS -19.9489 165.097 990 bom main 76 61 P_____O__PP_P_ SH241969 -19.9192 165.117 -1 -20.0000 165.000 990 -19.9192 165.117 TC -19.9238 165.107 2 -19.9667 165.280 TC 44 990 6 236
1969047S15175 1969 13 SP MM IRENE 1969-02-19 12:00:00 TS -20.0061 165.008 main 61 23 O_____P__OO_O_ jtwc_sh SH241969 -20.0000 165.000 -1 -20.0363 164.949 989 -20.0000 165.000 TC -20.0000 165.000 2 -20.0000 165.200 TC 45 990 6 235
1969047S15175 1969 13 SP MM IRENE 1969-02-19 15:00:00 TS -20.1904 164.729 main 23 0 P_____P__PP_P_ SH241969 -20.2726 164.565 -1 -20.1415 164.821 988 -20.2726 164.565 TC -20.2406 164.599 2 -20.1073 165.057 TC 47 989 6 237
1969047S15175 1969 13 SP MM IRENE 1969-02-19 17:00:00 TS -20.2993 164.525 988 bom main 0 0 P_____O__PP_P_ SH241969 -20.4338 164.252 -1 -20.2000 164.700 988 -20.4338 164.252 TC -20.3834 164.312 2 -20.1723 164.965 TC 49 988 7 242
1969047S15175 1969 13 SP MM IRENE 1969-02-19 18:00:00 TS -20.3455 164.412 main 0 0 O_____P__OP_O_ jtwc_sh SH241969 -20.5000 164.100 -1 -20.2252 164.605 988 -20.5000 164.100 TC -20.4479 164.166 2 -20.2000 164.900 TC 50 988 7 252
1969047S15175 1969 13 SP MM IRENE 1969-02-19 21:00:00 TS -20.4525 164.033 main 15 15 P_____P__PP_P_ SH241969 -20.6449 163.685 -1 -20.2806 164.253 988 -20.6449 163.685 TC -20.6062 163.724 2 -20.2726 164.573 TC 50 988 7 256
1969047S15175 1969 13 SP MM IRENE 1969-02-19 23:00:00 TS -20.4916 163.772 988 bom main 30 30 P_____O__PP_P_ SH241969 -20.6916 163.425 -1 -20.3000 164.000 988 4 -20.6916 163.425 TC -20.6768 163.438 2 -20.2974 164.321 TC 50 988 7 262
1969047S15175 1969 13 SP MM IRENE 1969-02-20 00:00:00 TS -20.5012 163.649 main 47 47 O_____P__OO_O_ jtwc_sh SH241969 -20.7000 163.300 -1 -20.3071 163.892 988 -20.7000 163.300 TC -20.7000 163.300 2 -20.3000 164.200 TC 50 988 6 270
1969047S15175 1969 13 SP MM IRENE 1969-02-20 03:00:00 TS -20.4899 163.310 main 76 76 P_____P__PP_P_ SH241969 -20.6724 162.942 -1 -20.3081 163.583 988 -20.6724 162.942 TC -20.7185 162.916 2 -20.2574 163.892 TC 50 988 6 275
1969047S15175 1969 13 SP MM IRENE 1969-02-20 06:00:00 TS -20.4419 162.989 main 104 104 O_____P__OP_O_ jtwc_sh SH241969 -20.6000 162.600 -1 -20.2831 163.289 989 -20.6000 162.600 TC -20.6747 162.554 2 -20.2000 163.600 TC 50 989 6 279
1969047S15175 1969 13 SP MM IRENE 1969-02-20 09:00:00 TS -20.3990 162.666 main 135 135 P_____P__PP_P_ SH241969 -20.5500 162.235 -1 -20.2381 162.998 989 -20.5500 162.235 TC -20.5935 162.216 2 -20.2074 163.308 TC 47 989 6 279
1969047S15175 1969 13 SP MM IRENE 1969-02-20 11:00:00 TS -20.3655 162.454 990 bom main 156 166 P_____O__PP_P_ SH241969 -20.5167 162.005 -1 -20.2000 162.800 990 -20.5167 162.005 TC -20.5310 162.003 2 -20.2087 163.106 TC 45 989 6 280
1969047S15175 1969 13 SP MM IRENE 1969-02-20 12:00:00 TS -20.3467 162.350 main 166 166 O_____P__OO_O_ jtwc_sh SH241969 -20.5000 161.900 -1 -20.1803 162.701 990 -20.5000 161.900 TC -20.5000 161.900 2 -20.2000 163.000 TC 45 990 6 282
1969047S15175 1969 13 SP MM IRENE 1969-02-20 15:00:00 TS -20.2852 162.055 main 198 198 P_____P__PP_P_ SH241969 -20.4574 161.643 -1 -20.1099 162.402 990 -20.4574 161.643 TC -20.4440 161.612 2 -20.1075 162.650 TC 45 990 6 284
1969047S15175 1969 13 SP MM IRENE 1969-02-20 18:00:00 TS -20.2110 161.763 main 229 229 O_____P__OP_O_ jtwc_sh SH241969 -20.4000 161.400 -1 -20.0296 162.088 990 -20.4000 161.400 TC -20.3794 161.343 2 -20.0000 162.300 TC 45 990 6 285
1969047S15175 1969 13 SP MM IRENE 1969-02-20 21:00:00 TS -20.1329 161.457 main 261 261 P_____P__PP_P_ SH241969 -20.3150 161.108 -1 -19.9492 161.748 990 -20.3150 161.108 TC -20.3002 161.077 2 -19.9423 162.015 TC 45 990 6 285
1969047S15175 1969 13 SP MM IRENE 1969-02-20 23:00:00 TS -20.0762 161.241 990 bom main 293 293 P_____O__PP_P_ SH241969 -20.2417 160.903 -1 -19.9000 161.500 990 -20.2417 160.903 TC -20.2361 160.895 2 -19.9139 161.815 TC 45 990 6 285
1969047S15175 1969 13 SP MM IRENE 1969-02-21 00:00:00 TS -20.0471 161.128 main 304 304 O_____P__OO_O_ jtwc_sh SH241969 -20.2000 160.800 -1 -19.8824 161.369 990 -20.2000 160.800 TC -20.2000 160.800 2 -19.9000 161.700 TC 45 990 7 285
1969047S15175 1969 13 SP MM IRENE 1969-02-21 03:00:00 TS -19.9532 160.768 main 335 335 P_____P__PP_P_ SH241969 -20.0574 160.508 -1 -19.8362 160.951 990 -20.0574 160.508 TC -20.0634 160.485 2 -19.8500 161.273 TC 45 990 7 286
1969047S15175 1969 13 SP MM IRENE 1969-02-21 06:00:00 TS -19.8524 160.384 main 378 378 O_____P__OP_O_ jtwc_sh SH241969 -19.9000 160.200 -1 -19.7924 160.499 990 -19.9000 160.200 TC -19.9075 160.157 2 -19.8000 160.800 TC 45 990 8 285
1969047S15175 1969 13 SP EA IRENE 1969-02-21 09:00:00 TS -19.7499 159.982 main 423 423 P_____P__PP_P_ SH241969 -19.7425 159.850 -1 -19.7420 160.025 990 -19.7425 159.850 TC -19.7478 159.826 2 -19.7573 160.358 TC 45 990 8 285
1969047S15175 1969 13 SP EA IRENE 1969-02-21 11:00:00 TS -19.6805 159.709 990 bom main 454 454 P_____O__PP_P_ SH241969 -19.6443 159.614 -1 -19.7000 159.700 990 -19.6443 159.614 TC -19.6470 159.607 2 -19.7223 160.056 TC 45 990 8 285
1969047S15175 1969 13 SP EA IRENE 1969-02-21 12:00:00 TS -19.6460 159.573 main 466 466 O_____P__OO_O_ jtwc_sh SH241969 -19.6000 159.500 -1 -19.6757 159.540 990 -19.6000 159.500 TC -19.6000 159.500 2 -19.7000 159.900 TC 45 990 8 285
1969047S15175 1969 13 SP EA IRENE 1969-02-21 15:00:00 TS -19.5465 159.178 main 509 509 P_____P__PP_P_ SH241969 -19.4924 159.193 -1 -19.5931 159.049 990 -19.4924 159.193 TC -19.4933 159.214 2 -19.6074 159.407 TC 45 990 8 285
1969047S15175 1969 13 SP EA IRENE 1969-02-21 18:00:00 TS -19.4458 158.781 main 553 553 O_____P__OP_O_ jtwc_sh SH241969 -19.4000 158.900 -1 -19.4955 158.547 990 -19.4000 158.900 TC -19.3993 158.931 2 -19.5000 158.900 TC 45 990 8 285
1969047S15175 1969 13 SP EA IRENE 1969-02-21 21:00:00 TS -19.3425 158.384 main 596 596 P_____P__PP_P_ SH241969 -19.3074 158.615 -1 -19.3831 158.039 990 -19.3074 158.615 TC -19.3057 158.632 2 -19.4074 158.400 TC 45 990 8 286
1969047S15175 1969 13 SP EA IRENE 1969-02-21 23:00:00 TS -19.2671 158.112 990 bom main 627 627 P_____O__PP_P_ SH241969 -19.2390 158.411 -1 -19.3000 157.700 990 -19.2390 158.411 TC -19.2374 158.416 2 -19.3390 158.067 TC 45 990 8 287
1969047S15175 1969 13 SP EA IRENE 1969-02-22 00:00:00 TS -19.2265 157.971 main 639 639 O_____P__OO_O_ jtwc_sh SH241969 -19.2000 158.300 -1 -19.2591 157.526 990 -19.2000 158.300 TC -19.2000 158.300 2 -19.3000 157.900 TC 45 990 9 288
1969047S15175 1969 13 SP EA IRENE 1969-02-22 03:00:00 TS -19.0854 157.526 main 693 693 P_____P__PP_P_ SH241969 -19.0575 157.923 -1 -19.1267 157.001 991 -19.0575 157.923 TC -19.0522 157.915 2 -19.1574 157.400 TC 45 991 9 289
1969047S15175 1969 13 SP EA IRENE 1969-02-22 06:00:00 TS -18.9311 157.064 main 739 731 O_____P__OP_O_ jtwc_sh SH241969 -18.9000 157.500 -1 -18.9793 156.486 992 -18.9000 157.500 TC -18.8925 157.495 2 -19.0000 156.900 TC 45 992 9 289
1969047S15175 1969 13 SP EA IRENE 1969-02-22 09:00:00 TS -18.7761 156.597 main 731 712 P_____P__PP_P_ SH241969 -18.7424 157.058 -1 -18.8167 155.999 993 -18.7424 157.058 TC -18.7365 157.052 2 -18.8575 156.378 TC 42 993 9 289
1969047S15175 1969 13 SP EA IRENE 1969-02-22 11:00:00 TS -18.6735 156.291 994 bom main 712 704 P_____O__PP_P_ SH241969 -18.6443 156.753 -1 -18.7000 155.700 994 -18.6443 156.753 TC -18.6424 156.751 2 -18.7557 156.050 TC 40 993 9 290
1969047S15175 1969 13 SP EA IRENE 1969-02-22 12:00:00 TS -18.6223 156.142 main 703 678 O_____P__OO_O_ jtwc_sh SH241969 -18.6000 156.600 -1 -18.6337 155.553 994 -18.6000 156.600 TC -18.6000 156.600 2 -18.7000 155.900 TC 40 994 9 291
1969047S15175 1969 13 SP EA IRENE 1969-02-22 15:00:00 TS -18.4635 155.717 main 678 663 P_____P__PP_P_ SH241969 -18.4849 156.150 -1 -18.4216 155.142 995 -18.4849 156.150 TC -18.4626 156.157 2 -18.5073 155.528 TC 37 995 8 291
1969047S15175 1969 13 SP EA IRENE 1969-02-22 18:00:00 TS -18.3156 155.314 main 663 642 O_____P__OP_O_ jtwc_sh SH241969 -18.4000 155.700 -1 -18.2065 154.780 996 -18.4000 155.700 TC -18.3522 155.707 2 -18.3000 155.200 TC 35 996 8 291
1969047S15175 1969 13 SP EA IRENE 1969-02-22 21:00:00 TS -18.1780 154.918 main 642 635 P_____P__PP_P_ SH241969 -18.3124 155.250 -1 -18.0099 154.472 997 -18.3124 155.250 TC -18.2907 155.253 2 -18.0851 154.820 TC 35 997 8 288
1969047S15175 1969 13 SP EA IRENE 1969-02-22 23:00:00 TS -18.1125 154.671 998 bom main 636 629 P_____O__PP_P_ SH241969 -18.2911 154.950 -1 -17.9000 154.300 998 -18.2911 154.950 TC -18.2877 154.951 2 -17.9553 154.594 TC 35 997 7 284
1969047S15175 1969 13 SP EA IRENE 1969-02-23 00:00:00 TS -18.0936 154.553 main 629 603 O_____P__OO_O_ jtwc_sh SH241969 -18.3000 154.800 -1 -17.8618 154.218 998 -18.3000 154.800 TC -18.3000 154.800 2 -17.9000 154.500 TC 35 998 7 272
1969047S15175 1969 13 SP EA IRENE 1969-02-23 03:00:00 TS -18.0977 154.212 main 603 585 P_____P__PP_P_ SH241969 -18.4124 154.350 -1 -17.7764 154.016 999 -18.4124 154.350 TC -18.4363 154.230 2 -17.7774 154.320 TC 32 999 6 264
1969047S15175 1969 13 SP EA IRENE 1969-02-23 06:00:00 TS -18.1531 153.903 main 576 555 O_____P__OP_O_ jtwc_sh SH241969 -18.6000 153.900 -1 -17.7155 153.866 1000 -18.6000 153.900 TC -18.6359 153.677 2 -17.7000 154.200 TC 30 1000 6 256
1969047S15175 1969 13 SP EA IRENE 1969-02-23 09:00:00 TS -18.2528 153.577 main 549 532 P_____P__PP_P_ SH241969 -18.8077 153.353 -1 -17.6539 153.756 1001 -18.8077 153.353 TC -18.8423 153.236 2 -17.6575 154.035 TC 27 1001 6 249
1969047S15175 1969 13 SP EA IRENE 1969-02-23 11:00:00 TS -18.3326 153.400 1002 bom main 532 517 P_____O__PP_P_ SH241969 -18.9422 153.076 -1 -17.6000 153.700 1002 -18.9422 153.076 TC -18.9563 153.050 2 -17.6255 153.939 TC 25 1001 5 240
1969047S15175 1969 13 SP EA IRENE 1969-02-23 12:00:00 TS -18.3889 153.333 main 517 512 O_____P__OO_O_ jtwc_sh SH241969 -19.0000 153.000 -1 -17.5666 153.675 1002 -19.0000 153.000 TC -19.0000 153.000 2 -17.6000 153.900 TC 25 1002 2 202
1969047S15175 1969 13 SP EA IRENE 1969-02-23 15:00:00 TS -18.4594 153.347 main 512 512 P_____P__PP_P_ SH241969 -19.1523 153.072 -1 -17.4421 153.613 1002 -19.1523 153.072 TC -19.0855 153.141 2 -17.4650 153.835 TC 25 1002 2 116
1969047S15175 1969 13 SP EA IRENE 1969-02-23 18:00:00 TS -18.4790 153.527 main 524 524 O_____P__OP_O_ jtwc_sh SH241969 -19.2000 153.400 -1 -17.2891 153.565 1002 -19.2000 153.400 TC -19.1082 153.480 2 -17.3000 153.800 TC 25 1002 4 98
1969047S15175 1969 13 SP EA IRENE 1969-02-23 21:00:00 TS -18.5189 153.796 main 542 542 P_____P__PP_P_ SH241969 -19.1178 153.838 -1 -17.1184 153.525 1002 -19.1178 153.838 TC -19.0516 153.879 2 -17.1450 153.755 TC 25 1002 6 103
1969047S15175 1969 13 SP EA IRENE 1969-02-23 23:00:00 TS -18.5888 154.016 1002 bom main 546 544 P_____O__PP_P_ SH241969 -18.9861 154.108 -1 -17.0000 153.500 1002 -18.9861 154.108 TC -18.9620 154.110 2 -17.0478 153.719 TC 25 1002 8 124
1969047S15175 1969 13 SP EA IRENE 1969-02-24 00:00:00 TS -18.7538 154.162 main 542 542 O________OO_O_ jtwc_sh SH241969 -18.9000 154.200 -1 -18.9000 154.200 TC -18.9000 154.200 2 -17.0000 153.700 TC 25 1002 3 94
1969047S15175 1969 13 SP EA IRENE 1969-02-24 03:00:00 TS -18.6023 154.228 main 559 559 P________PP___ SH241969 -18.5799 154.217 -1 -18.5799 154.217 TC -18.6472 154.250 2 TC 5 0
1969047S15175 1969 13 SP EA IRENE 1969-02-24 06:00:00 TS -18.2349 154.135 main 588 588 O________OP___ jtwc_sh SH241969 -18.2000 154.100 -1 -18.2000 154.100 TC -18.3047 154.204 2 8 348
1969047S15175 1969 13 SP EA IRENE 1969-02-24 09:00:00 TS -17.8700 154.069 main 615 613 P________PP___ SH241969 -17.8500 154.050 -1 -17.8500 154.050 TC -17.9099 154.106 2 8 350
1969047S15175 1969 13 SP EA IRENE 1969-02-24 12:00:00 TS -17.5000 154.000 main 630 630 O________OO___ jtwc_sh SH241969 -17.5000 154.000 -1 -17.5000 154.000 TC -17.5000 154.000 2 7 350
1969047S15175 1969 13 SP EA IRENE 1969-02-24 15:00:00 TS -17.1401 153.940 main 645 645 P________PP___ SH241969 -17.1575 153.950 -1 -17.1575 153.950 TC -17.1054 153.920 2 7 352
1969047S15175 1969 13 SP EA IRENE 1969-02-24 18:00:00 TS -16.7759 153.888 main 665 665 O________OP___ jtwc_sh SH241969 -16.8000 153.900 -1 -16.8000 153.900 TC -16.7276 153.865 2 8 353
1969047S15175 1969 13 SP EA IRENE 1969-02-24 21:00:00 TS -16.3937 153.843 main 684 684 P________PP___ SH241969 -16.4100 153.850 -1 -16.4100 153.850 TC -16.3610 153.828 2 8 353
1969047S15175 1969 13 SP EA IRENE 1969-02-25 00:00:00 TS -16.0000 153.800 main 691 O________OO___ jtwc_sh SH241969 -16.0000 153.800 -1 -16.0000 153.800 TC -16.0000 153.800 2 8 354

Digital Typhoon Data and Search

About IBTrACS Database

This database is a web-friendly format of International Best Track Archive for Climate Stewardship (IBTrACS), a global best track data archive curated by NOAA dating back to 1842.

Updated: 2021-12-06